Time;durP1;ratioP1;P1;durP2;ratioP2;P2;SDS_P1;SDS_P2;PMS_P1;PMS_P2;Temp;Humidity;BMP_temperature;BMP_pressure;BME280_temperature;BME280_humidity;BME280_pressure;Samples;Min_cycle;Max_cycle;Signal;HPM_P1;HPM_P2
2022/09/15 00:01:09;;;;;;;0.00;0.00;;;;;;;;;;5011576;28;20203;-69
2022/09/15 00:03:37;;;;;;;0.00;0.00;;;;;;;;;;5015012;28;20205;-70
2022/09/15 00:06:04;;;;;;;0.00;0.00;;;;;;;;;;5005341;28;20195;-69
2022/09/15 00:08:32;;;;;;;0.00;0.00;;;;;;;;;;5008941;28;20240;-70
2022/09/15 00:11:06;;;;;;;0.00;0.00;;;;;;;;;;5010580;28;20319;-68
2022/09/15 00:13:34;;;;;;;0.00;0.00;;;;;;;;;;5010593;28;20287;-71
2022/09/15 00:16:01;;;;;;;0.00;0.00;;;;;;;;;;5015115;28;20188;-72
2022/09/15 00:18:32;;;;;;;0.00;0.00;;;;;;;;;;5013984;28;20216;-69
2022/09/15 00:20:59;;;;;;;0.00;0.00;;;;;;;;;;5010092;28;20200;-69
2022/09/15 00:23:26;;;;;;;0.00;0.00;;;;;;;;;;5012083;28;20283;-70
2022/09/15 00:25:54;;;;;;;0.00;0.00;;;;;;;;;;5016436;28;20200;-71
2022/09/15 00:28:23;;;;;;;0.00;0.00;;;;;;;;;;5002617;28;20308;-69
2022/09/15 00:30:51;;;;;;;0.00;0.00;;;;;;;;;;5006223;28;20234;-70
2022/09/15 00:33:19;;;;;;;0.00;0.00;;;;;;;;;;5012013;28;20189;-69
2022/09/15 00:35:47;;;;;;;0.00;0.00;;;;;;;;;;5009108;28;20204;-69
2022/09/15 00:38:15;;;;;;;0.00;0.00;;;;;;;;;;5006654;28;20282;-68
2022/09/15 00:40:46;;;;;;;0.00;0.00;;;;;;;;;;5014831;28;20227;-69
2022/09/15 00:43:14;;;;;;;0.00;0.00;;;;;;;;;;5004918;28;20692;-68
2022/09/15 00:45:43;;;;;;;0.00;0.00;;;;;;;;;;5014683;28;20211;-69
2022/09/15 00:48:12;;;;;;;0.00;0.00;;;;;;;;;;5005273;28;20225;-69
2022/09/15 00:50:41;;;;;;;0.00;0.00;;;;;;;;;;5005149;28;20310;-69
2022/09/15 00:53:11;;;;;;;0.00;0.00;;;;;;;;;;5023640;28;20242;-70
2022/09/15 00:55:42;;;;;;;0.00;0.00;;;;;;;;;;5010820;28;20207;-71
2022/09/15 00:58:12;;;;;;;0.00;0.00;;;;;;;;;;5004596;28;20224;-69
2022/09/15 01:00:46;;;;;;;0.00;0.00;;;;;;;;;;5009218;28;20232;-68
2022/09/15 01:03:16;;;;;;;0.00;0.00;;;;;;;;;;5014132;28;20258;-69
2022/09/15 01:05:46;;;;;;;0.00;0.00;;;;;;;;;;5010320;28;20255;-70
2022/09/15 01:08:17;;;;;;;0.00;0.00;;;;;;;;;;5008933;28;20688;-69
2022/09/15 01:10:45;;;;;;;0.00;0.00;;;;;;;;;;5013080;28;20232;-68
2022/09/15 01:13:14;;;;;;;0.00;0.00;;;;;;;;;;5008664;28;20214;-69
2022/09/15 01:15:49;;;;;;;0.00;0.00;;;;;;;;;;5007886;28;20214;-71
2022/09/15 01:18:31;;;;;;;0.00;0.00;;;;;;;;;;5011972;28;20265;-68
2022/09/15 01:21:04;;;;;;;0.00;0.00;;;;;;;;;;5011831;28;20192;-70
2022/09/15 01:23:39;;;;;;;0.00;0.00;;;;;;;;;;5021380;28;20208;-69
2022/09/15 01:26:22;;;;;;;0.00;0.00;;;;;;;;;;5012257;28;20191;-71
2022/09/15 01:28:57;;;;;;;0.00;0.00;;;;;;;;;;5013492;28;20232;-69
2022/09/15 01:31:30;;;;;;;0.00;0.00;;;;;;;;;;5003327;28;20224;-69
2022/09/15 01:33:58;;;;;;;0.00;0.00;;;;;;;;;;5001561;28;20219;-70
2022/09/15 01:36:29;;;;;;;0.00;0.00;;;;;;;;;;5020169;28;20200;-69
2022/09/15 01:39:00;;;;;;;0.00;0.00;;;;;;;;;;5008846;28;20221;-69
2022/09/15 01:41:30;;;;;;;0.00;0.00;;;;;;;;;;5011580;28;20199;-69
2022/09/15 01:44:02;;;;;;;0.00;0.00;;;;;;;;;;5028896;28;20219;-69
2022/09/15 01:46:32;;;;;;;0.00;0.00;;;;;;;;;;5019551;28;20204;-70
2022/09/15 01:49:01;;;;;;;0.00;0.00;;;;;;;;;;5011007;28;20236;-70
2022/09/15 01:51:28;;;;;;;0.00;0.00;;;;;;;;;;5012305;28;20239;-69
2022/09/15 01:53:57;;;;;;;0.00;0.00;;;;;;;;;;5014608;28;20300;-69
2022/09/15 01:56:24;;;;;;;0.00;0.00;;;;;;;;;;5010180;28;20197;-69
2022/09/15 01:58:52;;;;;;;0.00;0.00;;;;;;;;;;5015717;28;20310;-69
2022/09/15 02:01:20;;;;;;;0.00;0.00;;;;;;;;;;5010428;28;20214;-70
2022/09/15 02:03:54;;;;;;;0.00;0.00;;;;;;;;;;5011677;28;20284;-70
2022/09/15 02:06:25;;;;;;;0.00;0.00;;;;;;;;;;5014698;28;20205;-69
2022/09/15 02:08:54;;;;;;;0.00;0.00;;;;;;;;;;5004527;28;20222;-70
2022/09/15 02:11:24;;;;;;;0.00;0.00;;;;;;;;;;5013182;28;20314;-71
2022/09/15 02:13:55;;;;;;;0.00;0.00;;;;;;;;;;5016177;28;20205;-70
2022/09/15 02:16:23;;;;;;;0.00;0.00;;;;;;;;;;5008967;28;20216;-69
2022/09/15 02:18:59;;;;;;;0.00;0.00;;;;;;;;;;5013636;28;20291;-69
2022/09/15 02:21:29;;;;;;;0.00;0.00;;;;;;;;;;5014469;28;20668;-69
2022/09/15 02:24:00;;;;;;;0.00;0.00;;;;;;;;;;5010642;28;20283;-69
2022/09/15 02:26:29;;;;;;;0.00;0.00;;;;;;;;;;5006208;28;20205;-69
2022/09/15 02:28:58;;;;;;;0.00;0.00;;;;;;;;;;5007041;28;20240;-70
2022/09/15 02:31:26;;;;;;;0.00;0.00;;;;;;;;;;5018680;28;20224;-69
2022/09/15 02:33:56;;;;;;;0.00;0.00;;;;;;;;;;5014508;28;20211;-69
2022/09/15 02:36:26;;;;;;;0.00;0.00;;;;;;;;;;5012698;28;20208;-70
2022/09/15 02:38:56;;;;;;;0.00;0.00;;;;;;;;;;5010644;28;20225;-69
2022/09/15 02:41:24;;;;;;;0.00;0.00;;;;;;;;;;5013042;28;20579;-69
2022/09/15 02:43:51;;;;;;;0.00;0.00;;;;;;;;;;5011143;28;20276;-70
2022/09/15 02:46:19;;;;;;;0.10;0.10;;;;;;;;;;5009483;28;20200;-70
2022/09/15 02:48:46;;;;;;;0.00;0.00;;;;;;;;;;5006950;28;20229;-70
2022/09/15 02:51:14;;;;;;;0.00;0.00;;;;;;;;;;5010807;28;20213;-71
2022/09/15 02:53:43;;;;;;;0.00;0.00;;;;;;;;;;5011859;28;20295;-71
2022/09/15 02:56:10;;;;;;;0.00;0.00;;;;;;;;;;5008832;28;20287;-69
2022/09/15 02:58:38;;;;;;;0.00;0.00;;;;;;;;;;5006423;28;20220;-69
2022/09/15 03:01:06;;;;;;;0.00;0.00;;;;;;;;;;5012391;28;20283;-69
2022/09/15 03:03:34;;;;;;;0.00;0.00;;;;;;;;;;5012071;28;20216;-70
2022/09/15 03:08:59;;;;;;;0.00;0.00;;;;;;;;;;5105916;27;20813;-69
2022/09/15 03:11:27;;;;;;;0.00;0.00;;;;;;;;;;5104570;28;20232;-69
2022/09/15 03:13:55;;;;;;;0.00;0.00;;;;;;;;;;5100994;28;20672;-69
2022/09/15 03:16:22;;;;;;;0.00;0.00;;;;;;;;;;5094862;28;20237;-68
2022/09/15 03:18:49;;;;;;;0.00;0.00;;;;;;;;;;5090044;28;20215;-68
2022/09/15 03:21:17;;;;;;;0.10;0.10;;;;;;;;;;5089939;27;20206;-69
2022/09/15 03:23:45;;;;;;;0.00;0.00;;;;;;;;;;5095705;27;20202;-69
2022/09/15 03:26:14;;;;;;;0.00;0.00;;;;;;;;;;5099429;28;20308;-68
2022/09/15 03:28:41;;;;;;;0.00;0.00;;;;;;;;;;5104975;28;20213;-68
2022/09/15 03:31:09;;;;;;;0.00;0.00;;;;;;;;;;5096272;28;20255;-68
2022/09/15 03:33:36;;;;;;;0.00;0.00;;;;;;;;;;5096719;27;20647;-68
2022/09/15 03:36:04;;;;;;;0.07;0.07;;;;;;;;;;5098607;28;20217;-69
2022/09/15 03:38:32;;;;;;;0.00;0.00;;;;;;;;;;5105939;27;20662;-68
2022/09/15 03:41:00;;;;;;;0.00;0.00;;;;;;;;;;5102563;27;20189;-68
2022/09/15 03:43:29;;;;;;;0.00;0.00;;;;;;;;;;5093016;28;20739;-68
2022/09/15 03:45:56;;;;;;;0.00;0.00;;;;;;;;;;5093640;27;20221;-68
2022/09/15 03:48:24;;;;;;;0.00;0.00;;;;;;;;;;5098881;27;20221;-68
2022/09/15 03:50:51;;;;;;;0.00;0.00;;;;;;;;;;5097334;28;20198;-69
2022/09/15 03:53:19;;;;;;;0.10;0.10;;;;;;;;;;5091989;28;20272;-70
2022/09/15 03:55:47;;;;;;;0.00;0.00;;;;;;;;;;5097994;28;20221;-70
2022/09/15 03:58:15;;;;;;;0.00;0.00;;;;;;;;;;5094321;28;20218;-70
2022/09/15 04:00:44;;;;;;;0.00;0.00;;;;;;;;;;5096909;28;20200;-69
2022/09/15 04:03:11;;;;;;;0.00;0.00;;;;;;;;;;5095555;28;20190;-70
2022/09/15 04:05:39;;;;;;;0.00;0.00;;;;;;;;;;5093690;28;20267;-69
2022/09/15 04:08:06;;;;;;;0.00;0.00;;;;;;;;;;5102736;28;20237;-70
2022/09/15 04:10:34;;;;;;;0.00;0.00;;;;;;;;;;5104177;28;20246;-72
2022/09/15 04:13:01;;;;;;;0.00;0.00;;;;;;;;;;5097762;28;20663;-69
2022/09/15 04:15:29;;;;;;;0.00;0.00;;;;;;;;;;5096736;28;20224;-72
2022/09/15 04:17:57;;;;;;;0.00;0.00;;;;;;;;;;5090565;27;20279;-72
2022/09/15 04:20:26;;;;;;;0.00;0.00;;;;;;;;;;5081297;28;20194;-72
2022/09/15 04:22:54;;;;;;;0.00;0.00;;;;;;;;;;5099447;27;20206;-72
2022/09/15 04:25:21;;;;;;;0.00;0.00;;;;;;;;;;5091212;28;20224;-72
2022/09/15 04:27:49;;;;;;;0.00;0.00;;;;;;;;;;5078916;28;20209;-72
2022/09/15 04:30:16;;;;;;;0.00;0.00;;;;;;;;;;5090804;27;20215;-72
2022/09/15 04:32:43;;;;;;;0.00;0.00;;;;;;;;;;5087207;28;20268;-71
2022/09/15 04:35:12;;;;;;;0.00;0.00;;;;;;;;;;5083523;28;20303;-70
2022/09/15 04:37:39;;;;;;;0.00;0.00;;;;;;;;;;5079612;28;20202;-70
2022/09/15 04:40:07;;;;;;;0.00;0.00;;;;;;;;;;5079358;28;20199;-72
2022/09/15 04:42:34;;;;;;;0.00;0.00;;;13.00;99.90;;;;;;5091139;28;20201;-72
2022/09/15 04:45:01;;;;;;;0.00;0.00;;;12.90;99.90;;;;;;5086860;28;20279;-70
2022/09/15 04:47:28;;;;;;;0.00;0.00;;;12.90;99.90;;;;;;5080045;28;20762;-71
2022/09/15 04:49:55;;;;;;;0.00;0.00;;;12.90;99.90;;;;;;5084008;28;20208;-73
2022/09/15 04:52:25;;;;;;;0.00;0.00;;;12.80;99.90;;;;;;5087314;28;20186;-72
2022/09/15 04:54:53;;;;;;;0.00;0.00;;;;;;;;;;5078177;28;20220;-68
2022/09/15 04:57:20;;;;;;;0.00;0.00;;;12.80;99.90;;;;;;5082285;28;20298;-69
2022/09/15 04:59:47;;;;;;;0.00;0.00;;;;;;;;;;5085442;28;20231;-73
2022/09/15 05:02:15;;;;;;;0.00;0.00;;;;;;;;;;5076599;28;20195;-72
2022/09/15 05:04:42;;;;;;;0.00;0.00;;;;;;;;;;5084718;28;20304;-73
2022/09/15 05:07:10;;;;;;;0.00;0.00;;;;;;;;;;5079197;28;20626;-73
2022/09/15 05:09:39;;;;;;;0.00;0.00;;;;;;;;;;5088168;28;20205;-72
2022/09/15 05:12:06;;;;;;;0.00;0.00;;;;;;;;;;5077647;28;20226;-71
2022/09/15 05:14:34;;;;;;;0.00;0.00;;;;;;;;;;5080306;28;20234;-71
2022/09/15 05:17:01;;;;;;;0.00;0.00;;;;;;;;;;5090148;28;20194;-71
2022/09/15 05:19:28;;;;;;;0.00;0.00;;;;;;;;;;5094386;28;20647;-71
2022/09/15 05:21:55;;;;;;;0.00;0.00;;;;;;;;;;5079847;28;20193;-72
2022/09/15 05:24:23;;;;;;;0.00;0.00;;;;;;;;;;5085418;28;20198;-71
2022/09/15 05:26:52;;;;;;;0.00;0.00;;;;;;;;;;5084772;28;20297;-71
2022/09/15 05:29:19;;;;;;;0.00;0.00;;;;;;;;;;5087934;28;20214;-71
2022/09/15 05:31:46;;;;;;;0.00;0.00;;;;;;;;;;5079665;28;20205;-73
2022/09/15 05:34:14;;;;;;;0.00;0.00;;;;;;;;;;5085014;28;20202;-71
2022/09/15 05:36:41;;;;;;;0.00;0.00;;;;;;;;;;5081528;28;20210;-71
2022/09/15 05:39:08;;;;;;;0.00;0.00;;;;;;;;;;5088704;28;20205;-72
2022/09/15 05:41:35;;;;;;;0.00;0.00;;;;;;;;;;5078259;28;20278;-71
2022/09/15 05:44:04;;;;;;;0.00;0.00;;;;;;;;;;5091700;28;20281;-71
2022/09/15 05:46:32;;;;;;;0.00;0.00;;;;;;;;;;5083962;28;20218;-71
2022/09/15 05:48:59;;;;;;;0.03;0.03;;;;;;;;;;5091491;28;20213;-71
2022/09/15 05:51:26;;;;;;;0.00;0.00;;;;;;;;;;5078369;28;20194;-71
2022/09/15 05:53:54;;;;;;;0.00;0.00;;;;;;;;;;5086612;28;20304;-71
2022/09/15 05:56:21;;;;;;;0.00;0.00;;;;;;;;;;5086371;28;20224;-71
2022/09/15 05:58:49;;;;;;;0.00;0.00;;;;;;;;;;5081598;28;20290;-71
2022/09/15 06:01:20;;;;;;;0.00;0.00;;;;;;;;;;5086844;28;20200;-72
2022/09/15 06:03:48;;;;;;;0.00;0.00;;;;;;;;;;5083780;28;20203;-71
2022/09/15 06:06:16;;;;;;;0.00;0.00;;;;;;;;;;5090579;28;20217;-72
2022/09/15 06:08:45;;;;;;;0.00;0.00;;;;;;;;;;5088164;28;20246;-71
2022/09/15 06:11:13;;;;;;;0.00;0.00;;;;;;;;;;5085902;28;20222;-71
2022/09/15 06:13:40;;;;;;;0.00;0.00;;;;;;;;;;5081683;28;20202;-71
2022/09/15 06:16:09;;;;;;;0.00;0.00;;;;;;;;;;5084708;28;20218;-72
2022/09/15 06:18:38;;;;;;;0.00;0.00;;;;;;;;;;5084078;28;20205;-71
2022/09/15 06:21:08;;;;;;;0.00;0.00;;;;;;;;;;5080754;28;20290;-71
2022/09/15 06:23:36;;;;;;;0.00;0.00;;;;;;;;;;5080052;28;20195;-72
2022/09/15 06:26:11;;;;;;;0.00;0.00;;;;;;;;;;5096256;27;20290;-71
2022/09/15 06:28:38;;;;;;;0.00;0.00;;;;;;;;;;5083608;28;20317;-72
2022/09/15 06:31:10;;;;;;;0.00;0.00;;;;;;;;;;5080240;28;20260;-72
2022/09/15 06:33:41;;;;;;;0.00;0.00;;;;;;;;;;5087730;28;20225;-71
2022/09/15 06:36:10;;;;;;;0.00;0.00;;;;;;;;;;5079603;28;20241;-71
2022/09/15 06:38:37;;;;;;;0.00;0.00;;;;;;;;;;5085627;28;20189;-72
2022/09/15 06:41:04;;;;;;;0.00;0.00;;;;;;;;;;5078668;28;20199;-71
2022/09/15 06:43:32;;;;;;;0.00;0.00;;;;;;;;;;5086217;28;20197;-72
2022/09/15 06:46:04;;;;;;;0.00;0.00;;;;;;;;;;5089093;28;20222;-72
2022/09/15 06:48:32;;;;;;;0.00;0.00;;;;;;;;;;5079826;28;20214;-71
2022/09/15 06:51:00;;;;;;;0.00;0.00;;;;;;;;;;5092361;28;20194;-72
2022/09/15 06:53:29;;;;;;;0.00;0.00;;;;;;;;;;5082591;28;20201;-71
2022/09/15 06:55:56;;;;;;;0.00;0.00;;;;;;;;;;5081464;28;20220;-71
2022/09/15 06:58:23;;;;;;;0.00;0.00;;;;;;;;;;5081868;28;20186;-71
2022/09/15 07:00:50;;;;;;;0.00;0.00;;;;;;;;;;5078902;28;20193;-72
2022/09/15 07:03:18;;;;;;;0.00;0.00;;;;;;;;;;5083145;28;20194;-72
2022/09/15 07:05:46;;;;;;;0.00;0.00;;;;;;;;;;5077774;28;20221;-71
2022/09/15 07:08:14;;;;;;;0.00;0.00;;;;;;;;;;5078024;28;20255;-71
2022/09/15 07:10:44;;;;;;;0.00;0.00;;;;;;;;;;5082837;28;20655;-71
2022/09/15 07:13:11;;;;;;;0.00;0.00;;;;;;;;;;5077980;28;20201;-71
2022/09/15 07:15:39;;;;;;;0.00;0.00;;;;;;;;;;5089002;28;20222;-72
2022/09/15 07:18:07;;;;;;;0.00;0.00;;;;;;;;;;5086114;28;20193;-72
2022/09/15 07:20:34;;;;;;;0.00;0.00;;;;;;;;;;5083904;28;20246;-71
2022/09/15 07:23:01;;;;;;;0.00;0.00;;;;;;;;;;5083554;28;20200;-72
2022/09/15 07:25:31;;;;;;;0.00;0.00;;;;;;;;;;5083003;28;20254;-72
2022/09/15 07:27:59;;;;;;;0.00;0.00;;;;;;;;;;5086638;28;20197;-72
2022/09/15 07:30:26;;;;;;;0.00;0.00;;;;;;;;;;5085455;28;20190;-72
2022/09/15 07:32:53;;;;;;;0.00;0.00;;;;;;;;;;5082518;28;20194;-72
2022/09/15 07:35:21;;;;;;;0.00;0.00;;;;;;;;;;5085285;28;20255;-71
2022/09/15 07:37:48;;;;;;;0.00;0.00;;;;;;;;;;5082591;28;20675;-72
2022/09/15 07:40:16;;;;;;;0.00;0.00;;;;;;;;;;5085084;28;20213;-72
2022/09/15 07:42:45;;;;;;;0.00;0.00;;;;;;;;;;5090906;28;20198;-72
2022/09/15 07:45:12;;;;;;;0.00;0.00;;;;;;;;;;5089162;28;20271;-71
2022/09/15 07:47:40;;;;;;;0.00;0.00;;;;;;;;;;5081879;28;20199;-72
2022/09/15 07:50:07;;;;;;;0.00;0.00;;;;;;;;;;5086698;28;20278;-71
2022/09/15 07:52:35;;;;;;;0.00;0.00;;;;;;;;;;5088767;28;20724;-72
2022/09/15 07:55:02;;;;;;;0.00;0.00;;;;;;;;;;5081756;28;20309;-71
2022/09/15 07:57:29;;;;;;;0.00;0.00;;;;;;;;;;5081074;28;20214;-71
2022/09/15 07:59:58;;;;;;;0.00;0.00;;;;;;;;;;5079328;28;20279;-72
2022/09/15 08:02:25;;;;;;;0.00;0.00;;;;;;;;;;5089637;28;20206;-72
2022/09/15 08:04:53;;;;;;;0.00;0.00;;;;;;;;;;5084864;28;20318;-72
2022/09/15 08:07:20;;;;;;;0.00;0.00;;;;;;;;;;5083849;28;20199;-72
2022/09/15 08:09:47;;;;;;;0.00;0.00;;;;;;;;;;5078694;28;20222;-71
2022/09/15 08:12:15;;;;;;;0.00;0.00;;;;;;;;;;5082389;28;20206;-72
2022/09/15 08:14:42;;;;;;;0.00;0.00;;;;;;;;;;5079540;28;20229;-73
2022/09/15 08:17:11;;;;;;;0.00;0.00;;;;;;;;;;5085309;28;20285;-71
2022/09/15 08:19:38;;;;;;;0.00;0.00;;;;;;;;;;5087291;28;20222;-72
2022/09/15 08:22:06;;;;;;;0.00;0.00;;;;;;;;;;5085657;28;20273;-70
2022/09/15 08:24:33;;;;;;;0.00;0.00;;;;;;;;;;5078953;28;20224;-72
2022/09/15 08:27:01;;;;;;;0.00;0.00;;;;;;;;;;5082508;28;20262;-73
2022/09/15 08:29:28;;;;;;;0.00;0.00;;;;;;;;;;5085058;28;20209;-72
2022/09/15 08:31:56;;;;;;;0.00;0.00;;;;;;;;;;5087126;28;20201;-71
2022/09/15 08:34:24;;;;;;;0.00;0.00;;;;;;;;;;5090714;28;20201;-72
2022/09/15 08:36:52;;;;;;;0.00;0.00;;;;;;;;;;5082445;28;20193;-72
2022/09/15 08:39:19;;;;;;;0.00;0.00;;;;;;;;;;5074051;28;20277;-72
2022/09/15 08:41:48;;;;;;;0.00;0.00;;;;;;;;;;5080592;28;20207;-72
2022/09/15 08:44:23;;;;;;;0.00;0.00;;;;;;;;;;5084514;28;20213;-72
2022/09/15 08:46:53;;;;;;;0.00;0.00;;;;;;;;;;5077546;28;20217;-71
2022/09/15 08:49:24;;;;;;;0.00;0.00;;;;;;;;;;5078603;28;20222;-72
2022/09/15 08:51:53;;;;;;;0.00;0.00;;;;;;;;;;5075809;28;20745;-72
2022/09/15 08:54:22;;;;;;;0.00;0.00;;;;;;;;;;5079071;28;20725;-72
2022/09/15 08:56:49;;;;;;;0.00;0.00;;;;;;;;;;5078060;28;20294;-72
2022/09/15 08:59:17;;;;;;;0.00;0.00;;;;;;;;;;5085946;28;20186;-72
2022/09/15 09:01:50;;;;;;;0.00;0.00;;;;;;;;;;5082624;28;20705;-72
2022/09/15 09:04:28;;;;;;;0.00;0.00;;;;;;;;;;5083877;28;20199;-72
2022/09/15 09:07:02;;;;;;;0.00;0.00;;;;;;;;;;5073876;28;20206;-72
2022/09/15 09:09:35;;;;;;;0.00;0.00;;;;;;;;;;5078605;28;20282;-72
2022/09/15 09:12:21;;;;;;;0.00;0.00;;;;;;;;;;5044684;22;20227;-78
2022/09/15 09:14:54;;;;;;;0.00;0.00;;;;;;;;;;5004252;28;20219;-77
2022/09/15 09:17:27;;;;;;;0.00;0.00;;;;;;;;;;5024237;28;20211;-77
2022/09/15 09:20:01;;;;;;;0.00;0.00;;;;;;;;;;5005710;28;20262;-77
2022/09/15 09:22:33;;;;;;;0.00;0.00;;;;;;;;;;5017079;28;20228;-78
2022/09/15 09:25:03;;;;;;;0.00;0.00;;;;;;;;;;5018005;28;20200;-78
2022/09/15 09:27:33;;;;;;;0.00;0.00;;;;;;;;;;5019898;28;20215;-79
2022/09/15 09:30:03;;;;;;;0.00;0.00;;;;;;;;;;5021152;28;20223;-77
2022/09/15 09:32:34;;;;;;;0.00;0.00;;;;;;;;;;5017723;28;20220;-78
2022/09/15 09:35:03;;;;;;;0.00;0.00;;;;;;;;;;5020878;28;20213;-77
2022/09/15 09:37:33;;;;;;;0.00;0.00;;;;;;;;;;5022591;28;20223;-77
2022/09/15 09:40:00;;;;;;;0.00;0.00;;;;;;;;;;5018158;28;20238;-77
2022/09/15 09:42:30;;;;;;;0.00;0.00;;;;;;;;;;5025540;28;20713;-77
2022/09/15 09:44:57;;;;;;;0.00;0.00;;;;;;;;;;5021564;28;20205;-77
2022/09/15 09:47:28;;;;;;;0.00;0.00;;;;;;;;;;5026428;28;20196;-76
2022/09/15 09:49:56;;;;;;;0.00;0.00;;;;;;;;;;5022009;28;20220;-78
2022/09/15 09:52:34;;;;;;;0.00;0.00;;;;;;;;;;5024301;28;20243;-77
2022/09/15 09:55:02;;;;;;;0.00;0.00;;;;;;;;;;5021036;28;20242;-77
2022/09/15 09:57:31;;;;;;;0.00;0.00;;;;;;;;;;5021781;28;20214;-78
2022/09/15 09:59:59;;;;;;;0.00;0.00;;;;;;;;;;5020587;28;20196;-78
2022/09/15 10:02:27;;;;;;;0.00;0.00;;;;;;;;;;5023586;28;20233;-78
2022/09/15 10:04:56;;;;;;;0.00;0.00;;;;;;;;;;5020910;28;20289;-77
2022/09/15 10:07:25;;;;;;;0.00;0.00;;;;;;;;;;5023811;28;20200;-79
2022/09/15 10:09:55;;;;;;;0.00;0.00;;;;;;;;;;5025257;28;20212;-77
2022/09/15 10:12:24;;;;;;;0.00;0.00;;;;;;;;;;5041730;28;20239;-78
2022/09/15 10:14:53;;;;;;;0.00;0.00;;;;;;;;;;5023489;28;20207;-78
2022/09/15 10:17:21;;;;;;;0.00;0.00;;;;;;;;;;5039978;28;20208;-78
2022/09/15 10:19:51;;;;;;;0.00;0.00;;;;;;;;;;5022678;28;20197;-77
2022/09/15 10:22:23;;;;;;;0.00;0.00;;;;;;;;;;5039791;28;20285;-76
2022/09/15 10:24:51;;;;;;;0.00;0.00;;;;;;;;;;5022074;28;20196;-79
2022/09/15 10:27:20;;;;;;;0.00;0.00;;;;;;;;;;5024492;28;20216;-77
2022/09/15 10:29:48;;;;;;;0.00;0.00;;;;;;;;;;5024249;28;20307;-76
2022/09/15 10:32:23;;;;;;;0.00;0.00;;;;;;;;;;5024019;28;20215;-76
2022/09/15 10:34:58;;;;;;;0.00;0.00;;;;;;;;;;5024135;28;20658;-78
2022/09/15 10:37:28;;;;;;;0.00;0.00;;;;;;;;;;5025658;28;20198;-76
2022/09/15 10:39:57;;;;;;;0.00;0.00;;;;;;;;;;5018976;28;20208;-76
2022/09/15 10:42:32;;;;;;;0.00;0.00;;;;;;;;;;5022567;28;20216;-76
2022/09/15 10:45:07;;;;;;;0.00;0.00;;;;;;;;;;5039183;28;20557;-76
2022/09/15 10:47:40;;;;;;;0.00;0.00;;;;;;;;;;5021867;28;20204;-77
2022/09/15 10:50:13;;;;;;;0.00;0.00;;;;;;;;;;5020769;28;20274;-76
2022/09/15 10:52:48;;;;;;;0.00;0.00;;;;;;;;;;5024838;28;20200;-79
2022/09/15 10:55:24;;;;;;;0.00;0.00;;;;;;;;;;5024705;28;20199;-76
2022/09/15 10:58:00;;;;;;;0.00;0.00;;;;;;;;;;5039171;28;20682;-76
2022/09/15 11:00:30;;;;;;;0.00;0.00;;;;;;;;;;5017134;28;20203;-77
2022/09/15 11:03:12;;;;;;;0.00;0.00;;;;;;;;;;5035330;28;20196;-77
2022/09/15 11:05:44;;;;;;;0.00;0.00;;;;;;;;;;5021290;28;20204;-78
2022/09/15 11:08:30;;;;;;;0.00;0.00;;;;;;;;;;5021055;28;20208;-77
2022/09/15 11:11:04;;;;;;;0.00;0.00;;;;;;;;;;5017147;28;20232;-77
2022/09/15 11:13:37;;;;;;;0.00;0.00;;;;;;;;;;5021046;28;20267;-77
2022/09/15 11:16:10;;;;;;;0.00;0.00;;;;;;;;;;5023040;28;20203;-77
2022/09/15 11:18:45;;;;;;;0.00;0.00;;;;;;;;;;5021760;28;20216;-76
2022/09/15 11:21:18;;;;;;;0.00;0.00;;;;;;;;;;5017047;28;20208;-77
2022/09/15 11:23:49;;;;;;;0.00;0.00;;;;;;;;;;5023666;28;20195;-77
2022/09/15 11:26:20;;;;;;;0.00;0.00;;;;;;;;;;5035609;28;20753;-77
2022/09/15 11:28:51;;;;;;;0.00;0.00;;;;;;;;;;5022562;28;20208;-77
2022/09/15 11:31:22;;;;;;;0.00;0.00;;;;;;;;;;5029122;28;20223;-76
2022/09/15 11:33:52;;;;;;;0.00;0.00;;;;;;;;;;5044086;28;20633;-77
2022/09/15 11:36:21;;;;;;;0.00;0.00;;;;;;;;;;5026695;28;20251;-77
2022/09/15 11:38:52;;;;;;;0.00;0.00;;;;;;;;;;5026200;28;20269;-77
2022/09/15 11:41:20;;;;;;;0.00;0.00;;;;;;;;;;5025633;28;20216;-77
2022/09/15 11:43:54;;;;;;;0.00;0.00;;;;;;;;;;5025713;28;20713;-77
2022/09/15 11:46:26;;;;;;;0.00;0.00;;;;;;;;;;5028221;28;20235;-77
2022/09/15 11:48:58;;;;;;;0.00;0.00;;;;;;;;;;5023005;28;20200;-77
2022/09/15 11:51:27;;;;;;;0.00;0.00;;;;;;;;;;5026143;28;20219;-77
2022/09/15 11:53:56;;;;;;;0.00;0.00;;;;;;;;;;5024813;28;20257;-77
2022/09/15 11:56:26;;;;;;;0.00;0.00;;;;;;;;;;5026848;28;20208;-77
2022/09/15 11:59:05;;;;;;;0.00;0.00;;;;;;;;;;5022755;28;20211;-77
2022/09/15 12:01:35;;;;;;;0.00;0.00;;;;;;;;;;5021483;28;20216;-77
2022/09/15 12:04:04;;;;;;;0.00;0.00;;;;;;;;;;5023781;28;20207;-77
2022/09/15 12:06:35;;;;;;;0.00;0.00;;;;;;;;;;5024823;28;20550;-77
2022/09/15 12:09:03;;;;;;;0.00;0.00;;;;;;;;;;5046417;28;20368;-77
2022/09/15 12:11:31;;;;;;;0.00;0.00;;;;;;;;;;5027792;28;20232;-78
2022/09/15 12:13:59;;;;;;;0.00;0.00;;;;;;;;;;5022036;28;20218;-77
2022/09/15 12:16:29;;;;;;;0.00;0.00;;;;;;;;;;5022771;28;20204;-77
2022/09/15 12:18:59;;;;;;;0.00;0.00;;;;;;;;;;5044350;28;20215;-77
2022/09/15 12:21:32;;;;;;;0.00;0.00;;;;;;;;;;5022579;28;20208;-77
2022/09/15 12:24:03;;;;;;;0.00;0.00;;;;;;;;;;5028506;28;20204;-77
2022/09/15 12:26:33;;;;;;;0.00;0.00;;;;;;;;;;5022496;28;20212;-77
2022/09/15 12:29:01;;;;;;;0.00;0.00;;;;;;;;;;5025863;28;20270;-77
2022/09/15 12:31:32;;;;;;;0.00;0.00;;;;;;;;;;5024177;28;20227;-78
2022/09/15 12:34:00;;;;;;;0.00;0.00;;;;;;;;;;5024370;28;20200;-76
2022/09/15 12:36:39;;;;;;;0.00;0.00;;;;;;;;;;5020585;28;20230;-77
2022/09/15 12:39:22;;;;;;;0.00;0.00;;;;;;;;;;5017411;28;20200;-76
2022/09/15 12:41:51;;;;;;;0.00;0.00;;;;;;;;;;5021756;28;20219;-76
2022/09/15 12:44:23;;;;;;;0.00;0.00;;;;;;;;;;5024083;28;20207;-76
2022/09/15 12:46:53;;;;;;;0.00;0.00;;;;;;;;;;5015681;28;20205;-76
2022/09/15 12:49:20;;;;;;;0.00;0.00;;;;;;;;;;5021033;28;20682;-78
2022/09/15 12:51:49;;;;;;;0.00;0.00;;;;;;;;;;5020643;28;20314;-75
2022/09/15 12:54:21;;;;;;;0.00;0.00;;;;;;;;;;5020203;28;20200;-76
2022/09/15 12:56:51;;;;;;;0.00;0.00;;;;;;;;;;5017339;28;20208;-78
2022/09/15 12:59:24;;;;;;;0.00;0.00;;;;;;;;;;5021279;28;20234;-77
2022/09/15 13:01:53;;;;;;;0.00;0.00;;;;;;;;;;5019032;28;20607;-78
2022/09/15 13:04:26;;;;;;;0.00;0.00;;;;;;;;;;5020399;28;20203;-75
2022/09/15 13:07:12;;;;;;;0.00;0.00;;;;;;;;;;5023924;28;20200;-75
2022/09/15 13:09:44;;;;;;;0.00;0.00;;;;;;;;;;5028069;28;20192;-78
2022/09/15 13:12:13;;;;;;;0.00;0.00;;;;;;;;;;5020688;28;20998;-77
2022/09/15 13:14:41;;;;;;;0.00;0.00;;;;;;;;;;5022833;28;20291;-77
2022/09/15 13:17:15;;;;;;;0.00;0.00;;;;;;;;;;5022366;28;20208;-76
2022/09/15 13:19:45;;;;;;;0.00;0.00;;;;;;;;;;5019953;28;20196;-76
2022/09/15 13:22:19;;;;;;;0.00;0.00;;;;;;;;;;5023047;28;20227;-79
2022/09/15 13:24:48;;;;;;;0.00;0.00;;;;;;;;;;5025604;28;20206;-77
2022/09/15 13:27:18;;;;;;;0.00;0.00;;;;;;;;;;5022340;28;20196;-78
2022/09/15 13:29:48;;;;;;;0.00;0.00;;;;;;;;;;5019928;28;20215;-77
2022/09/15 13:32:22;;;;;;;0.00;0.00;;;;;;;;;;5024696;28;20255;-78
2022/09/15 13:35:07;;;;;;;0.00;0.00;;;;;;;;;;5025001;28;20204;-79
2022/09/15 13:37:44;;;;;;;0.00;0.00;;;;;;;;;;5021542;28;20191;-76
2022/09/15 13:40:27;;;;;;;0.00;0.00;;;;;;;;;;5022804;28;20196;-77
2022/09/15 13:43:04;;;;;;;0.00;0.00;;;;;;;;;;5022073;28;20226;-77
2022/09/15 13:45:50;;;;;;;0.00;0.00;;;;;;;;;;5025782;28;20204;-77
2022/09/15 13:48:32;;;;;;;0.00;0.00;;;;;;;;;;5024389;28;20204;-77
2022/09/15 13:51:02;;;;;;;0.00;0.00;;;;;;;;;;5018370;28;20235;-77
2022/09/15 13:53:46;;;;;;;0.00;0.00;;;;;;;;;;5021369;28;20225;-77
2022/09/15 13:56:17;;;;;;;0.00;0.00;;;;;;;;;;5021917;28;20224;-78
2022/09/15 13:58:44;;;;;;;0.00;0.00;;;;;;;;;;5023404;28;20257;-76
2022/09/15 14:01:13;;;;;;;0.00;0.00;;;;;;;;;;5026453;28;20258;-77
2022/09/15 14:03:43;;;;;;;0.00;0.00;;;;;;;;;;5020391;28;20254;-78
2022/09/15 14:06:13;;;;;;;0.00;0.00;;;;;;;;;;5020213;28;20204;-79
2022/09/15 14:08:42;;;;;;;0.00;0.00;;;;;;;;;;5019457;28;20207;-82
2022/09/15 14:11:11;;;;;;;0.00;0.00;;;;;;;;;;5018727;28;20212;-78
2022/09/15 14:13:41;;;;;;;0.00;0.00;;;;;;;;;;5020258;28;20266;-78
2022/09/15 14:16:23;;;;;;;0.00;0.00;;;;;;;;;;5019800;28;20282;-77
2022/09/15 14:18:51;;;;;;;0.00;0.00;;;;;;;;;;5017885;28;20200;-81
2022/09/15 14:21:21;;;;;;;0.00;0.00;;;;;;;;;;5017859;28;20212;-78
2022/09/15 14:23:49;;;;;;;0.00;0.00;;;;;;;;;;5017364;28;20223;-77
2022/09/15 14:26:17;;;;;;;0.00;0.00;;;;;;;;;;5022225;28;20200;-76
2022/09/15 14:28:49;;;;;;;0.00;0.00;;;;;;;;;;5021535;28;20294;-78
2022/09/15 14:31:17;;;;;;;0.00;0.00;;;;;;;;;;5021700;28;20228;-80
2022/09/15 14:33:46;;;;;;;0.00;0.00;;;;;;;;;;5015203;28;20221;-79
2022/09/15 14:36:22;;;;;;;0.00;0.00;;;;;;;;;;5021092;28;20291;-78
2022/09/15 14:39:03;;;;;;;0.00;0.00;;;;;;;;;;5021040;28;20206;-77
2022/09/15 14:41:32;;;;;;;0.00;0.00;;;;;;;;;;5020836;28;20220;-78
2022/09/15 14:43:59;;;;;;;0.00;0.00;;;;;;;;;;5021466;28;20648;-79
2022/09/15 14:46:35;;;;;;;0.00;0.00;;;;;;;;;;5019999;28;20689;-77
2022/09/15 14:49:10;;;;;;;0.00;0.00;;;;;;;;;;5020890;28;20273;-78
2022/09/15 14:51:39;;;;;;;0.00;0.00;;;;;;;;;;5023087;28;20298;-81
2022/09/15 14:54:08;;;;;;;0.00;0.00;;;;;;;;;;5017655;28;20265;-79
2022/09/15 14:56:36;;;;;;;0.00;0.00;;;;;;;;;;5018973;28;20218;-79
2022/09/15 14:59:05;;;;;;;0.00;0.00;;;;;;;;;;5021782;28;20862;-78